sensor_id;sensor_type;location;lat;lon;timestamp;pressure;altitude;pressure_sealevel;temperature
62930;BMP280;49036;42.782;23.108;2023-11-19T00:01:27;91763.47;;;0.61
62930;BMP280;49036;42.782;23.108;2023-11-19T00:03:52;91760.28;;;0.55
62930;BMP280;49036;42.782;23.108;2023-11-19T00:06:18;91738.03;;;0.49
62930;BMP280;49036;42.782;23.108;2023-11-19T00:08:44;91722.66;;;0.54
62930;BMP280;49036;42.782;23.108;2023-11-19T00:11:09;91721.94;;;0.53
62930;BMP280;49036;42.782;23.108;2023-11-19T00:13:36;91718.94;;;0.59
62930;BMP280;49036;42.782;23.108;2023-11-19T00:16:01;91731.00;;;0.65
62930;BMP280;49036;42.782;23.108;2023-11-19T00:18:29;91726.13;;;0.64
62930;BMP280;49036;42.782;23.108;2023-11-19T00:20:55;91731.44;;;0.62
62930;BMP280;49036;42.782;23.108;2023-11-19T00:23:20;91729.16;;;0.68
62930;BMP280;49036;42.782;23.108;2023-11-19T00:25:46;91738.78;;;0.69
62930;BMP280;49036;42.782;23.108;2023-11-19T00:28:13;91760.16;;;0.73
62930;BMP280;49036;42.782;23.108;2023-11-19T00:30:38;91784.72;;;0.73
62930;BMP280;49036;42.782;23.108;2023-11-19T00:33:05;91784.00;;;0.72
62930;BMP280;49036;42.782;23.108;2023-11-19T00:35:31;91816.03;;;0.72
62930;BMP280;49036;42.782;23.108;2023-11-19T00:37:57;91798.50;;;0.65
62930;BMP280;49036;42.782;23.108;2023-11-19T00:40:23;91796.78;;;0.70
62930;BMP280;49036;42.782;23.108;2023-11-19T00:42:49;91795.19;;;0.67
62930;BMP280;49036;42.782;23.108;2023-11-19T00:45:15;91804.97;;;0.70
62930;BMP280;49036;42.782;23.108;2023-11-19T00:47:40;91787.88;;;0.69
62930;BMP280;49036;42.782;23.108;2023-11-19T00:50:07;91843.91;;;0.80
62930;BMP280;49036;42.782;23.108;2023-11-19T00:52:37;91852.25;;;0.82
62930;BMP280;49036;42.782;23.108;2023-11-19T00:55:03;91853.38;;;0.79
62930;BMP280;49036;42.782;23.108;2023-11-19T00:57:30;91877.94;;;0.79
62930;BMP280;49036;42.782;23.108;2023-11-19T00:59:58;91869.63;;;0.77
62930;BMP280;49036;42.782;23.108;2023-11-19T01:02:24;91841.88;;;0.71
62930;BMP280;49036;42.782;23.108;2023-11-19T01:04:50;91835.25;;;0.64
62930;BMP280;49036;42.782;23.108;2023-11-19T01:07:15;91831.50;;;0.59
62930;BMP280;49036;42.782;23.108;2023-11-19T01:09:42;91818.72;;;0.52
62930;BMP280;49036;42.782;23.108;2023-11-19T01:12:07;91815.38;;;0.44
62930;BMP280;49036;42.782;23.108;2023-11-19T01:14:34;91797.28;;;0.39
62930;BMP280;49036;42.782;23.108;2023-11-19T01:17:01;91796.00;;;0.40
62930;BMP280;49036;42.782;23.108;2023-11-19T01:19:26;91830.59;;;0.37
62930;BMP280;49036;42.782;23.108;2023-11-19T01:21:54;91836.63;;;0.36
62930;BMP280;49036;42.782;23.108;2023-11-19T01:24:20;91859.16;;;0.36
62930;BMP280;49036;42.782;23.108;2023-11-19T01:26:45;91882.88;;;0.44
62930;BMP280;49036;42.782;23.108;2023-11-19T01:29:15;91893.06;;;0.43
62930;BMP280;49036;42.782;23.108;2023-11-19T01:31:46;91890.88;;;0.42
62930;BMP280;49036;42.782;23.108;2023-11-19T01:34:12;91893.75;;;0.34
62930;BMP280;49036;42.782;23.108;2023-11-19T01:36:38;91907.97;;;0.42
62930;BMP280;49036;42.782;23.108;2023-11-19T01:39:04;91952.63;;;0.47
62930;BMP280;49036;42.782;23.108;2023-11-19T01:41:34;91932.06;;;0.36
62930;BMP280;49036;42.782;23.108;2023-11-19T01:44:00;91943.00;;;0.46
62930;BMP280;49036;42.782;23.108;2023-11-19T01:46:26;91960.66;;;0.45
62930;BMP280;49036;42.782;23.108;2023-11-19T01:48:52;91988.41;;;0.51
62930;BMP280;49036;42.782;23.108;2023-11-19T01:51:19;91993.00;;;0.48
62930;BMP280;49036;42.782;23.108;2023-11-19T01:53:45;92000.19;;;0.53
62930;BMP280;49036;42.782;23.108;2023-11-19T01:56:13;92015.28;;;0.54
62930;BMP280;49036;42.782;23.108;2023-11-19T01:58:40;92031.09;;;0.56
62930;BMP280;49036;42.782;23.108;2023-11-19T02:01:07;92029.09;;;0.56
62930;BMP280;49036;42.782;23.108;2023-11-19T02:03:33;92037.41;;;0.58
62930;BMP280;49036;42.782;23.108;2023-11-19T02:05:59;92052.34;;;0.57
62930;BMP280;49036;42.782;23.108;2023-11-19T02:08:25;92031.63;;;0.54
62930;BMP280;49036;42.782;23.108;2023-11-19T02:10:51;92013.53;;;0.49
62930;BMP280;49036;42.782;23.108;2023-11-19T02:13:18;92027.91;;;0.50
62930;BMP280;49036;42.782;23.108;2023-11-19T02:15:44;92029.34;;;0.51
62930;BMP280;49036;42.782;23.108;2023-11-19T02:18:23;92001.00;;;0.46
62930;BMP280;49036;42.782;23.108;2023-11-19T02:20:50;91993.81;;;0.41
62930;BMP280;49036;42.782;23.108;2023-11-19T02:23:15;91965.66;;;0.38
62930;BMP280;49036;42.782;23.108;2023-11-19T02:25:42;91951.72;;;0.34
62930;BMP280;49036;42.782;23.108;2023-11-19T02:28:08;91942.84;;;0.34
62930;BMP280;49036;42.782;23.108;2023-11-19T02:30:37;91932.19;;;0.28
62930;BMP280;49036;42.782;23.108;2023-11-19T02:33:03;91901.56;;;0.20
62930;BMP280;49036;42.782;23.108;2023-11-19T02:35:31;91887.22;;;0.20
62930;BMP280;49036;42.782;23.108;2023-11-19T02:37:58;91884.50;;;0.20
62930;BMP280;49036;42.782;23.108;2023-11-19T02:40:29;91902.59;;;0.25
62930;BMP280;49036;42.782;23.108;2023-11-19T02:42:55;91916.84;;;0.33
62930;BMP280;49036;42.782;23.108;2023-11-19T02:45:25;91921.72;;;0.34
62930;BMP280;49036;42.782;23.108;2023-11-19T02:47:51;91902.22;;;0.38
62930;BMP280;49036;42.782;23.108;2023-11-19T02:50:20;91922.47;;;0.45
62930;BMP280;49036;42.782;23.108;2023-11-19T02:52:55;91922.16;;;0.41
62930;BMP280;49036;42.782;23.108;2023-11-19T02:55:22;91931.97;;;0.44
62930;BMP280;49036;42.782;23.108;2023-11-19T02:57:49;91939.56;;;0.45
62930;BMP280;49036;42.782;23.108;2023-11-19T03:00:16;91949.63;;;0.43
62930;BMP280;49036;42.782;23.108;2023-11-19T03:02:43;91961.06;;;0.41
62930;BMP280;49036;42.782;23.108;2023-11-19T03:05:13;91958.63;;;0.35
62930;BMP280;49036;42.782;23.108;2023-11-19T03:07:43;91945.56;;;0.34
62930;BMP280;49036;42.782;23.108;2023-11-19T03:10:10;91958.34;;;0.41
62930;BMP280;49036;42.782;23.108;2023-11-19T03:12:43;91970.16;;;0.44
62930;BMP280;49036;42.782;23.108;2023-11-19T03:15:09;91958.34;;;0.41
62930;BMP280;49036;42.782;23.108;2023-11-19T03:17:39;91965.97;;;0.43
62930;BMP280;49036;42.782;23.108;2023-11-19T03:20:06;91973.03;;;0.46
62930;BMP280;49036;42.782;23.108;2023-11-19T03:22:32;91973.91;;;0.48
62930;BMP280;49036;42.782;23.108;2023-11-19T03:25:01;91983.34;;;0.47
62930;BMP280;49036;42.782;23.108;2023-11-19T03:27:26;91981.06;;;0.44
62930;BMP280;49036;42.782;23.108;2023-11-19T03:29:52;91984.19;;;0.40
62930;BMP280;49036;42.782;23.108;2023-11-19T03:32:17;91978.34;;;0.44
62930;BMP280;49036;42.782;23.108;2023-11-19T03:34:43;91993.97;;;0.43
62930;BMP280;49036;42.782;23.108;2023-11-19T03:37:08;92000.19;;;0.53
62930;BMP280;49036;42.782;23.108;2023-11-19T03:39:34;92032.13;;;0.60
62930;BMP280;49036;42.782;23.108;2023-11-19T03:41:59;92030.28;;;0.63
62930;BMP280;49036;42.782;23.108;2023-11-19T03:44:26;92062.78;;;0.69
62930;BMP280;49036;42.782;23.108;2023-11-19T03:46:52;92080.59;;;0.70
62930;BMP280;49036;42.782;23.108;2023-11-19T03:49:17;92103.69;;;0.69
62930;BMP280;49036;42.782;23.108;2023-11-19T03:51:43;92107.31;;;0.71
62930;BMP280;49036;42.782;23.108;2023-11-19T03:54:09;92126.97;;;0.70
62930;BMP280;49036;42.782;23.108;2023-11-19T03:56:34;92135.31;;;0.72
62930;BMP280;49036;42.782;23.108;2023-11-19T03:59:00;92166.22;;;0.74
62930;BMP280;49036;42.782;23.108;2023-11-19T04:01:25;92172.22;;;0.73
62930;BMP280;49036;42.782;23.108;2023-11-19T04:03:51;92173.66;;;0.74
62930;BMP280;49036;42.782;23.108;2023-11-19T04:06:17;92191.91;;;0.71
62930;BMP280;49036;42.782;23.108;2023-11-19T04:08:42;92167.75;;;0.68
62930;BMP280;49036;42.782;23.108;2023-11-19T04:11:07;92144.47;;;0.67
62930;BMP280;49036;42.782;23.108;2023-11-19T04:13:34;92151.53;;;0.70
62930;BMP280;49036;42.782;23.108;2023-11-19T04:16:00;92148.91;;;0.62
62930;BMP280;49036;42.782;23.108;2023-11-19T04:18:26;92135.78;;;0.60
62930;BMP280;49036;42.782;23.108;2023-11-19T04:20:52;92158.91;;;0.59
62930;BMP280;49036;42.782;23.108;2023-11-19T04:23:17;92168.38;;;0.58
62930;BMP280;49036;42.782;23.108;2023-11-19T04:25:43;92152.75;;;0.59
62930;BMP280;49036;42.782;23.108;2023-11-19T04:28:08;92153.16;;;0.55
62930;BMP280;49036;42.782;23.108;2023-11-19T04:30:34;92148.25;;;0.54
62930;BMP280;49036;42.782;23.108;2023-11-19T04:33:00;92122.97;;;0.53
62930;BMP280;49036;42.782;23.108;2023-11-19T04:35:26;92104.53;;;0.44
62930;BMP280;49036;42.782;23.108;2023-11-19T04:37:51;92094.34;;;0.45
62930;BMP280;49036;42.782;23.108;2023-11-19T04:40:17;92093.19;;;0.48
62930;BMP280;49036;42.782;23.108;2023-11-19T04:42:43;92089.34;;;0.51
62930;BMP280;49036;42.782;23.108;2023-11-19T04:45:09;92095.19;;;0.47
62930;BMP280;49036;42.782;23.108;2023-11-19T04:47:36;92100.84;;;0.49
62930;BMP280;49036;42.782;23.108;2023-11-19T04:50:02;92097.94;;;0.47
62930;BMP280;49036;42.782;23.108;2023-11-19T04:52:28;92087.19;;;0.49
62930;BMP280;49036;42.782;23.108;2023-11-19T04:54:53;92083.41;;;0.45
62930;BMP280;49036;42.782;23.108;2023-11-19T04:57:19;92084.63;;;0.51
62930;BMP280;49036;42.782;23.108;2023-11-19T04:59:44;92074.66;;;0.46
62930;BMP280;49036;42.782;23.108;2023-11-19T05:02:10;92084.47;;;0.49
62930;BMP280;49036;42.782;23.108;2023-11-19T05:04:36;92062.31;;;0.45
62930;BMP280;49036;42.782;23.108;2023-11-19T05:07:03;92082.84;;;0.46
62930;BMP280;49036;42.782;23.108;2023-11-19T05:09:29;92084.13;;;0.45
62930;BMP280;49036;42.782;23.108;2023-11-19T05:11:55;92095.38;;;0.49
62930;BMP280;49036;42.782;23.108;2023-11-19T05:14:21;92091.75;;;0.47
62930;BMP280;49036;42.782;23.108;2023-11-19T05:16:47;92088.72;;;0.43
62930;BMP280;49036;42.782;23.108;2023-11-19T05:19:13;92066.19;;;0.42
62930;BMP280;49036;42.782;23.108;2023-11-19T05:21:42;92063.13;;;0.38
62930;BMP280;49036;42.782;23.108;2023-11-19T05:24:08;92097.78;;;0.45
62930;BMP280;49036;42.782;23.108;2023-11-19T05:26:34;92080.13;;;0.46
62930;BMP280;49036;42.782;23.108;2023-11-19T05:28:59;92070.16;;;0.41
62930;BMP280;49036;42.782;23.108;2023-11-19T05:31:25;92071.63;;;0.42
62930;BMP280;49036;42.782;23.108;2023-11-19T05:33:50;92049.06;;;0.42
62930;BMP280;49036;42.782;23.108;2023-11-19T05:36:16;92042.91;;;0.41
62930;BMP280;49036;42.782;23.108;2023-11-19T05:38:42;92052.53;;;0.42
62930;BMP280;49036;42.782;23.108;2023-11-19T05:41:07;92029.84;;;0.40
62930;BMP280;49036;42.782;23.108;2023-11-19T05:43:33;92053.81;;;0.41
62930;BMP280;49036;42.782;23.108;2023-11-19T05:45:59;92073.06;;;0.43
62930;BMP280;49036;42.782;23.108;2023-11-19T05:48:25;92072.66;;;0.47
62930;BMP280;49036;42.782;23.108;2023-11-19T05:50:51;92067.63;;;0.43
62930;BMP280;49036;42.782;23.108;2023-11-19T05:53:17;92066.19;;;0.42
62930;BMP280;49036;42.782;23.108;2023-11-19T05:55:43;92095.44;;;0.42
62930;BMP280;49036;42.782;23.108;2023-11-19T05:58:15;92126.34;;;0.44
62930;BMP280;49036;42.782;23.108;2023-11-19T06:00:40;92152.00;;;0.41
62930;BMP280;49036;42.782;23.108;2023-11-19T06:03:09;92184.03;;;0.41
62930;BMP280;49036;42.782;23.108;2023-11-19T06:05:35;92152.25;;;0.35
62930;BMP280;49036;42.782;23.108;2023-11-19T06:08:00;92143.50;;;0.37
62930;BMP280;49036;42.782;23.108;2023-11-19T06:10:26;92122.97;;;0.36
62930;BMP280;49036;42.782;23.108;2023-11-19T06:12:59;92137.50;;;0.38
62930;BMP280;49036;42.782;23.108;2023-11-19T06:15:28;92126.75;;;0.41
62930;BMP280;49036;42.782;23.108;2023-11-19T06:17:54;92154.00;;;0.41
62930;BMP280;49036;42.782;23.108;2023-11-19T06:20:20;92169.88;;;0.34
62930;BMP280;49036;42.782;23.108;2023-11-19T06:22:46;92209.53;;;0.35
62930;BMP280;49036;42.782;23.108;2023-11-19T06:25:12;92219.47;;;0.41
62930;BMP280;49036;42.782;23.108;2023-11-19T06:27:40;92233.84;;;0.41
62930;BMP280;49036;42.782;23.108;2023-11-19T06:30:07;92195.41;;;0.47
62930;BMP280;49036;42.782;23.108;2023-11-19T06:32:32;92265.63;;;0.46
62930;BMP280;49036;42.782;23.108;2023-11-19T06:34:58;92312.91;;;0.49
62930;BMP280;49036;42.782;23.108;2023-11-19T06:37:23;92328.16;;;0.52
62930;BMP280;49036;42.782;23.108;2023-11-19T06:39:49;92332.25;;;0.60
62930;BMP280;49036;42.782;23.108;2023-11-19T06:42:14;92385.91;;;0.65
62930;BMP280;49036;42.782;23.108;2023-11-19T06:44:40;92411.13;;;0.74
62930;BMP280;49036;42.782;23.108;2023-11-19T06:47:05;92402.34;;;0.83
62930;BMP280;49036;42.782;23.108;2023-11-19T06:49:31;92409.41;;;0.86
62930;BMP280;49036;42.782;23.108;2023-11-19T06:51:57;92424.34;;;0.85
62930;BMP280;49036;42.782;23.108;2023-11-19T06:54:23;92432.72;;;0.87
62930;BMP280;49036;42.782;23.108;2023-11-19T06:56:48;92388.72;;;1.00
62930;BMP280;49036;42.782;23.108;2023-11-19T06:59:14;92411.94;;;1.09
62930;BMP280;49036;42.782;23.108;2023-11-19T07:01:40;92435.66;;;0.99
62930;BMP280;49036;42.782;23.108;2023-11-19T07:04:08;92443.31;;;1.00
62930;BMP280;49036;42.782;23.108;2023-11-19T07:06:35;92441.34;;;0.93
62930;BMP280;49036;42.782;23.108;2023-11-19T07:09:02;92472.34;;;0.88
62930;BMP280;49036;42.782;23.108;2023-11-19T07:11:39;92497.25;;;0.92
62930;BMP280;49036;42.782;23.108;2023-11-19T07:14:05;92481.59;;;0.92
62930;BMP280;49036;42.782;23.108;2023-11-19T07:16:32;92510.97;;;0.84
62930;BMP280;49036;42.782;23.108;2023-11-19T07:19:00;92510.09;;;0.82
62930;BMP280;49036;42.782;23.108;2023-11-19T07:21:26;92493.31;;;0.85
62930;BMP280;49036;42.782;23.108;2023-11-19T07:23:54;92516.09;;;1.05
62930;BMP280;49036;42.782;23.108;2023-11-19T07:26:19;92540.97;;;1.17
62930;BMP280;49036;42.782;23.108;2023-11-19T07:28:45;92566.41;;;1.27
62930;BMP280;49036;42.782;23.108;2023-11-19T07:31:10;92625.69;;;1.09
62930;BMP280;49036;42.782;23.108;2023-11-19T07:33:36;92601.69;;;1.00
62930;BMP280;49036;42.782;23.108;2023-11-19T07:36:02;92562.22;;;0.93
62930;BMP280;49036;42.782;23.108;2023-11-19T07:38:27;92555.31;;;0.92
62930;BMP280;49036;42.782;23.108;2023-11-19T07:40:53;92546.78;;;0.88
62930;BMP280;49036;42.782;23.108;2023-11-19T07:43:19;92535.53;;;0.84
62930;BMP280;49036;42.782;23.108;2023-11-19T07:45:44;92525.06;;;0.98
62930;BMP280;49036;42.782;23.108;2023-11-19T07:48:11;92521.53;;;1.13
62930;BMP280;49036;42.782;23.108;2023-11-19T07:50:39;92532.44;;;1.13
62930;BMP280;49036;42.782;23.108;2023-11-19T07:53:06;92499.63;;;1.20
62930;BMP280;49036;42.782;23.108;2023-11-19T07:55:33;92526.63;;;1.34
62930;BMP280;49036;42.782;23.108;2023-11-19T07:57:58;92567.38;;;1.39
62930;BMP280;49036;42.782;23.108;2023-11-19T08:00:24;92604.22;;;1.31
62930;BMP280;49036;42.782;23.108;2023-11-19T08:02:49;92577.38;;;1.19
62930;BMP280;49036;42.782;23.108;2023-11-19T08:05:15;92509.28;;;1.39
62930;BMP280;49036;42.782;23.108;2023-11-19T08:07:41;92566.97;;;1.43
62930;BMP280;49036;42.782;23.108;2023-11-19T08:10:07;92596.72;;;1.39
62930;BMP280;49036;42.782;23.108;2023-11-19T08:12:35;92607.25;;;1.42
62930;BMP280;49036;42.782;23.108;2023-11-19T08:15:04;92610.66;;;1.51
62930;BMP280;49036;42.782;23.108;2023-11-19T08:17:32;92624.28;;;1.58
62930;BMP280;49036;42.782;23.108;2023-11-19T08:19:58;92649.63;;;1.51
62930;BMP280;49036;42.782;23.108;2023-11-19T08:22:25;92651.63;;;1.58
62930;BMP280;49036;42.782;23.108;2023-11-19T08:24:51;92661.13;;;1.49
62930;BMP280;49036;42.782;23.108;2023-11-19T08:27:16;92624.03;;;1.64
62930;BMP280;49036;42.782;23.108;2023-11-19T08:29:42;92689.59;;;1.71
62930;BMP280;49036;42.782;23.108;2023-11-19T08:32:07;92724.41;;;1.71
62930;BMP280;49036;42.782;23.108;2023-11-19T08:34:33;92766.28;;;1.81
62930;BMP280;49036;42.782;23.108;2023-11-19T08:36:59;92760.72;;;1.96
62930;BMP280;49036;42.782;23.108;2023-11-19T08:39:24;92775.63;;;2.03
62930;BMP280;49036;42.782;23.108;2023-11-19T08:41:50;92819.66;;;2.22
62930;BMP280;49036;42.782;23.108;2023-11-19T08:44:16;92793.50;;;2.71
62930;BMP280;49036;42.782;23.108;2023-11-19T08:46:51;92824.63;;;3.01
62930;BMP280;49036;42.782;23.108;2023-11-19T08:49:18;92916.75;;;3.38
62930;BMP280;49036;42.782;23.108;2023-11-19T08:51:43;92914.28;;;3.42
62930;BMP280;49036;42.782;23.108;2023-11-19T08:54:09;93030.88;;;3.51
62930;BMP280;49036;42.782;23.108;2023-11-19T08:56:36;93050.38;;;3.30
62930;BMP280;49036;42.782;23.108;2023-11-19T08:59:01;93072.78;;;3.19
62930;BMP280;49036;42.782;23.108;2023-11-19T09:01:27;93047.41;;;2.78
62930;BMP280;49036;42.782;23.108;2023-11-19T09:03:52;92982.19;;;2.84
62930;BMP280;49036;42.782;23.108;2023-11-19T09:06:18;92983.66;;;2.53
62930;BMP280;49036;42.782;23.108;2023-11-19T09:08:43;93000.19;;;2.38
62930;BMP280;49036;42.782;23.108;2023-11-19T09:11:09;92935.97;;;2.31
62930;BMP280;49036;42.782;23.108;2023-11-19T09:13:35;92908.22;;;2.34
62930;BMP280;49036;42.782;23.108;2023-11-19T09:16:01;92968.16;;;2.23
62930;BMP280;49036;42.782;23.108;2023-11-19T09:18:30;93004.66;;;2.18
62930;BMP280;49036;42.782;23.108;2023-11-19T09:20:57;92974.63;;;1.95
62930;BMP280;49036;42.782;23.108;2023-11-19T09:23:22;92947.66;;;1.91
62930;BMP280;49036;42.782;23.108;2023-11-19T09:25:49;92972.69;;;1.72
62930;BMP280;49036;42.782;23.108;2023-11-19T09:28:15;92930.75;;;1.70
62930;BMP280;49036;42.782;23.108;2023-11-19T09:30:40;92896.88;;;1.65
62930;BMP280;49036;42.782;23.108;2023-11-19T09:33:06;92842.84;;;1.81
62930;BMP280;49036;42.782;23.108;2023-11-19T09:35:31;92841.91;;;1.86
62930;BMP280;49036;42.782;23.108;2023-11-19T09:37:57;92846.91;;;1.72
62930;BMP280;49036;42.782;23.108;2023-11-19T09:40:23;92788.56;;;1.78
62930;BMP280;49036;42.782;23.108;2023-11-19T09:42:48;92774.34;;;2.04
62930;BMP280;49036;42.782;23.108;2023-11-19T09:45:16;92808.00;;;2.14
62930;BMP280;49036;42.782;23.108;2023-11-19T09:47:46;92812.91;;;2.23
62930;BMP280;49036;42.782;23.108;2023-11-19T09:50:17;92849.78;;;2.15
62930;BMP280;49036;42.782;23.108;2023-11-19T09:52:44;92829.91;;;2.14
62930;BMP280;49036;42.782;23.108;2023-11-19T09:55:10;92820.75;;;1.87
62930;BMP280;49036;42.782;23.108;2023-11-19T09:57:38;92780.03;;;1.98
62930;BMP280;49036;42.782;23.108;2023-11-19T10:00:05;92763.78;;;2.25
62930;BMP280;49036;42.782;23.108;2023-11-19T10:02:34;92849.78;;;2.15
62930;BMP280;49036;42.782;23.108;2023-11-19T10:05:06;92837.44;;;2.06
62930;BMP280;49036;42.782;23.108;2023-11-19T10:07:32;92816.66;;;2.03
62930;BMP280;49036;42.782;23.108;2023-11-19T10:10:02;92802.53;;;2.14
62930;BMP280;49036;42.782;23.108;2023-11-19T10:12:31;92867.16;;;2.34
62930;BMP280;49036;42.782;23.108;2023-11-19T10:14:58;92896.16;;;2.38
62930;BMP280;49036;42.782;23.108;2023-11-19T10:17:28;92887.06;;;2.27
62930;BMP280;49036;42.782;23.108;2023-11-19T10:19:55;92914.19;;;2.16
62930;BMP280;49036;42.782;23.108;2023-11-19T10:22:22;92926.09;;;2.36
62930;BMP280;49036;42.782;23.108;2023-11-19T10:24:48;92909.84;;;2.38
62930;BMP280;49036;42.782;23.108;2023-11-19T10:27:13;92958.97;;;2.28
62930;BMP280;49036;42.782;23.108;2023-11-19T10:29:40;92928.13;;;2.27
62930;BMP280;49036;42.782;23.108;2023-11-19T10:32:05;92896.47;;;2.17
62930;BMP280;49036;42.782;23.108;2023-11-19T10:34:31;92904.69;;;2.17
62930;BMP280;49036;42.782;23.108;2023-11-19T10:36:56;92857.41;;;2.24
62930;BMP280;49036;42.782;23.108;2023-11-19T10:39:22;92867.75;;;2.25
62930;BMP280;49036;42.782;23.108;2023-11-19T10:41:49;92902.19;;;2.36
62930;BMP280;49036;42.782;23.108;2023-11-19T10:44:46;92884.25;;;2.18
62930;BMP280;49036;42.782;23.108;2023-11-19T10:47:13;92934.59;;;2.22
62930;BMP280;49036;42.782;23.108;2023-11-19T10:49:39;92907.97;;;2.15
62930;BMP280;49036;42.782;23.108;2023-11-19T10:52:08;92889.81;;;2.27
62930;BMP280;49036;42.782;23.108;2023-11-19T10:54:34;92898.91;;;2.38
62930;BMP280;49036;42.782;23.108;2023-11-19T10:57:01;92922.13;;;2.61
62930;BMP280;49036;42.782;23.108;2023-11-19T10:59:30;92917.47;;;2.72
62930;BMP280;49036;42.782;23.108;2023-11-19T11:02:00;92932.78;;;2.75
62930;BMP280;49036;42.782;23.108;2023-11-19T11:04:30;92944.78;;;2.79
62930;BMP280;49036;42.782;23.108;2023-11-19T11:06:58;92910.41;;;3.28
62930;BMP280;49036;42.782;23.108;2023-11-19T11:09:26;92913.84;;;4.42
62930;BMP280;49036;42.782;23.108;2023-11-19T11:11:52;93098.44;;;3.81
62930;BMP280;49036;42.782;23.108;2023-11-19T11:14:20;93032.66;;;3.31
62930;BMP280;49036;42.782;23.108;2023-11-19T11:16:48;92989.41;;;3.64
62930;BMP280;49036;42.782;23.108;2023-11-19T11:19:16;93038.63;;;4.14
62930;BMP280;49036;42.782;23.108;2023-11-19T11:21:45;93064.56;;;4.21
62930;BMP280;49036;42.782;23.108;2023-11-19T11:24:51;93110.22;;;4.78
62930;BMP280;49036;42.782;23.108;2023-11-19T11:30:13;93210.34;;;5.19
62930;BMP280;49036;42.782;23.108;2023-11-19T11:32:52;93220.41;;;5.34
62930;BMP280;49036;42.782;23.108;2023-11-19T11:38:08;93265.28;;;5.54
62930;BMP280;49036;42.782;23.108;2023-11-19T11:40:34;93253.22;;;6.03
62930;BMP280;49036;42.782;23.108;2023-11-19T11:43:00;93307.13;;;5.69
62930;BMP280;49036;42.782;23.108;2023-11-19T11:45:38;93218.97;;;4.88
62930;BMP280;49036;42.782;23.108;2023-11-19T11:48:09;93203.19;;;4.54
62930;BMP280;49036;42.782;23.108;2023-11-19T11:50:47;93215.22;;;4.76
62930;BMP280;49036;42.782;23.108;2023-11-19T11:53:15;93239.78;;;4.91
62930;BMP280;49036;42.782;23.108;2023-11-19T11:58:19;93184.66;;;4.38
62930;BMP280;49036;42.782;23.108;2023-11-19T12:00:47;93161.13;;;4.96
62930;BMP280;49036;42.782;23.108;2023-11-19T12:03:13;93158.81;;;5.19
62930;BMP280;49036;42.782;23.108;2023-11-19T12:05:44;93249.97;;;6.33
62930;BMP280;49036;42.782;23.108;2023-11-19T12:08:11;93290.09;;;6.83
62930;BMP280;49036;42.782;23.108;2023-11-19T12:10:51;93351.84;;;7.07
62930;BMP280;49036;42.782;23.108;2023-11-19T12:13:18;93358.78;;;6.88
62930;BMP280;49036;42.782;23.108;2023-11-19T12:16:07;93336.16;;;6.44
62930;BMP280;49036;42.782;23.108;2023-11-19T12:18:33;93296.91;;;6.26
62930;BMP280;49036;42.782;23.108;2023-11-19T12:21:00;93312.56;;;6.60
62930;BMP280;49036;42.782;23.108;2023-11-19T12:23:29;93329.25;;;6.71
62930;BMP280;49036;42.782;23.108;2023-11-19T12:25:55;93339.72;;;6.83
62930;BMP280;49036;42.782;23.108;2023-11-19T12:28:21;93356.78;;;7.27
62930;BMP280;49036;42.782;23.108;2023-11-19T12:30:48;93365.78;;;7.67
62930;BMP280;49036;42.782;23.108;2023-11-19T12:33:14;93410.25;;;7.71
62930;BMP280;49036;42.782;23.108;2023-11-19T12:35:43;93409.22;;;7.66
62930;BMP280;49036;42.782;23.108;2023-11-19T12:38:22;93419.84;;;7.70
62930;BMP280;49036;42.782;23.108;2023-11-19T12:41:14;93430.00;;;7.96
62930;BMP280;49036;42.782;23.108;2023-11-19T12:43:43;93422.31;;;8.04
62930;BMP280;49036;42.782;23.108;2023-11-19T12:46:22;93441.50;;;7.44
62930;BMP280;49036;42.782;23.108;2023-11-19T12:48:48;93423.31;;;7.99
62930;BMP280;49036;42.782;23.108;2023-11-19T12:51:14;93418.56;;;7.51
62930;BMP280;49036;42.782;23.108;2023-11-19T12:53:52;93430.03;;;7.57
62930;BMP280;49036;42.782;23.108;2023-11-19T12:56:20;93386.44;;;7.37
62930;BMP280;49036;42.782;23.108;2023-11-19T12:58:47;93397.63;;;7.39
62930;BMP280;49036;42.782;23.108;2023-11-19T13:01:16;93375.97;;;7.54
62930;BMP280;49036;42.782;23.108;2023-11-19T13:03:43;93392.06;;;7.97
62930;BMP280;49036;42.782;23.108;2023-11-19T13:06:10;93413.06;;;8.31
62930;BMP280;49036;42.782;23.108;2023-11-19T13:08:47;93452.66;;;8.74
62930;BMP280;49036;42.782;23.108;2023-11-19T13:11:37;93470.41;;;8.40
62930;BMP280;49036;42.782;23.108;2023-11-19T13:14:06;93456.63;;;8.61
62930;BMP280;49036;42.782;23.108;2023-11-19T13:16:36;93461.28;;;8.99
62930;BMP280;49036;42.782;23.108;2023-11-19T13:19:02;93469.00;;;9.01
62930;BMP280;49036;42.782;23.108;2023-11-19T13:21:28;93472.22;;;9.50
62930;BMP280;49036;42.782;23.108;2023-11-19T13:23:55;93509.63;;;8.58
62930;BMP280;49036;42.782;23.108;2023-11-19T13:26:20;93487.25;;;8.34
62930;BMP280;49036;42.782;23.108;2023-11-19T13:28:47;93469.84;;;8.22
62930;BMP280;49036;42.782;23.108;2023-11-19T13:31:13;93457.34;;;8.62
62930;BMP280;49036;42.782;23.108;2023-11-19T13:33:39;93469.81;;;9.13
62930;BMP280;49036;42.782;23.108;2023-11-19T13:36:05;93505.00;;;9.53
62930;BMP280;49036;42.782;23.108;2023-11-19T13:38:35;93517.66;;;8.44
62930;BMP280;49036;42.782;23.108;2023-11-19T13:41:02;93461.13;;;7.58
62930;BMP280;49036;42.782;23.108;2023-11-19T13:43:27;93399.28;;;6.86
62930;BMP280;49036;42.782;23.108;2023-11-19T13:45:54;93375.50;;;6.27
62930;BMP280;49036;42.782;23.108;2023-11-19T13:48:20;93329.16;;;5.79
62930;BMP280;49036;42.782;23.108;2023-11-19T13:50:45;93296.00;;;5.60
62930;BMP280;49036;42.782;23.108;2023-11-19T13:53:11;93266.38;;;5.41
62930;BMP280;49036;42.782;23.108;2023-11-19T13:55:36;93261.41;;;5.12
62930;BMP280;49036;42.782;23.108;2023-11-19T13:58:02;93223.16;;;4.89
62930;BMP280;49036;42.782;23.108;2023-11-19T14:00:27;93227.03;;;4.69
62930;BMP280;49036;42.782;23.108;2023-11-19T14:02:53;93190.97;;;4.48
62930;BMP280;49036;42.782;23.108;2023-11-19T14:05:19;93142.72;;;4.20
62930;BMP280;49036;42.782;23.108;2023-11-19T14:07:44;93117.75;;;4.08
62930;BMP280;49036;42.782;23.108;2023-11-19T14:10:13;93056.00;;;3.99
62930;BMP280;49036;42.782;23.108;2023-11-19T14:12:40;93046.38;;;3.73
62930;BMP280;49036;42.782;23.108;2023-11-19T14:15:07;93000.28;;;3.55
62930;BMP280;49036;42.782;23.108;2023-11-19T14:17:34;92974.13;;;3.36